Ansongo Airport


Codes: GAAO/
Name: Ansongo Airport
City: Ansongo
Country: Mali
Elevation: 853 ft.

Photos at Ansongo Airport


   Photos courtesy of SpottingLog. You can add your own sightings and photos by signing up for a free trial today.



No photos found.

Weather at Ansongo Airport


Time (UTC)DescriptionTempratureWindCloud coverageVisibilityPressureHumidity
21-Feb-2024 03:00Broken Clouds21°C9 mph, N71%10000m1010hPa12%
21-Feb-2024 06:00Broken Clouds20°C9 mph, N75%10000m1011hPa13%
21-Feb-2024 09:00Overcast Clouds26°C7 mph, NE92%10000m1012hPa10%
21-Feb-2024 12:00Overcast Clouds32°C7 mph, E96%10000m1010hPa7%
21-Feb-2024 15:00Broken Clouds34°C2 mph, SW68%10000m1007hPa6%
21-Feb-2024 18:00Broken Clouds29°C7 mph, W71%10000m1007hPa8%
21-Feb-2024 21:00Overcast Clouds27°C9 mph, NW100%10000m1010hPa9%
22-Feb-2024 00:00Overcast Clouds24°C9 mph, N91%10000m1010hPa9%
22-Feb-2024 03:00Broken Clouds22°C9 mph, N84%10000m1009hPa11%
22-Feb-2024 06:00Overcast Clouds21°C9 mph, N91%10000m1010hPa11%
22-Feb-2024 09:00Broken Clouds28°C13 mph, NE81%10000m1011hPa8%
22-Feb-2024 12:00Overcast Clouds33°C13 mph, NE90%10000m1010hPa6%
22-Feb-2024 15:00Overcast Clouds34°C0 mph, N89%10000m1007hPa5%
22-Feb-2024 18:00Overcast Clouds28°C4 mph, NW94%10000m1007hPa7%
22-Feb-2024 21:00Overcast Clouds25°C9 mph, NE87%10000m1010hPa8%
23-Feb-2024 00:00Scattered Clouds23°C9 mph, NE44%10000m1010hPa11%
23-Feb-2024 03:00Clear Sky20°C11 mph, N2%10000m1010hPa12%
23-Feb-2024 06:00Clear Sky19°C11 mph, NE1%10000m1011hPa14%
23-Feb-2024 09:00Clear Sky27°C13 mph, NE2%10000m1012hPa9%
23-Feb-2024 12:00Clear Sky34°C13 mph, E1%10000m1010hPa6%
23-Feb-2024 15:00Clear Sky35°C2 mph, E1%10000m1007hPa5%
23-Feb-2024 18:00Clear Sky27°C2 mph, NW1%10000m1008hPa8%
23-Feb-2024 21:00Clear Sky27°C9 mph, N0%10000m1010hPa8%
24-Feb-2024 00:00Clear Sky24°C11 mph, N0%10000m1011hPa10%
24-Feb-2024 03:00Clear Sky22°C11 mph, N0%10000m1010hPa11%
24-Feb-2024 06:00Clear Sky20°C9 mph, NE0%10000m1011hPa12%
24-Feb-2024 09:00Clear Sky28°C13 mph, NE2%10000m1013hPa8%
24-Feb-2024 12:00Scattered Clouds35°C7 mph, E39%10000m1010hPa5%
24-Feb-2024 15:00Overcast Clouds37°C4 mph, SW99%10000m1007hPa5%
24-Feb-2024 18:00Broken Clouds30°C7 mph, SW84%10000m1008hPa8%
24-Feb-2024 21:00Scattered Clouds28°C7 mph, W29%10000m1011hPa9%
25-Feb-2024 00:00Scattered Clouds26°C7 mph, NW40%10000m1011hPa9%
25-Feb-2024 03:00Overcast Clouds25°C9 mph, NW100%10000m1010hPa9%
25-Feb-2024 06:00Overcast Clouds23°C11 mph, N100%10000m1011hPa9%
25-Feb-2024 09:00Overcast Clouds30°C13 mph, N100%10000m1013hPa7%
25-Feb-2024 12:00Overcast Clouds37°C9 mph, NE87%10000m1011hPa5%
25-Feb-2024 15:00Overcast Clouds39°C2 mph, S100%10000m1008hPa5%
25-Feb-2024 18:00Overcast Clouds32°C4 mph, SW97%10000m1008hPa8%
25-Feb-2024 21:00Broken Clouds30°C7 mph, W76%10000m1010hPa8%
26-Feb-2024 00:00Overcast Clouds27°C9 mph, N85%10000m1010hPa9%